MPM weather

Maputo Airport
Maputo, Maputo (city), Mozambique

Public forecast

Using degrees Celsius for public forecast. Weather courtesy of forecast.io.

METAR (pilot weather report)

Retrieved 2019/09/21 05:00 UTC (41 minutes ago):

FQMA 210500Z 35006KT CAVOK 20/17 Q1018 NOSIG

TAF (pilot weather forecast)

Forecast is more than 12 hours old.

Retrieved 2019/09/20 00:00 UTC (1 day ago):

TAF FQMA 202200Z 2100/2206 02010KT 9999 FEW020 TX34/2113Z TN20/2103Z BECMG 2110/2112 08010G20KT BECMG 2118/2120 32012KT BECMG 2203/2205 02008KT BKN020